Time;durP1;ratioP1;P1;durP2;ratioP2;P2;SDS_P1;SDS_P2;PMS_P1;PMS_P2;Temp;Humidity;BMP_temperature;BMP_pressure;BME280_temperature;BME280_humidity;BME280_pressure;Samples;Min_cycle;Max_cycle;Signal;HPM_P1;HPM_P2
2023/09/11 00:00:43;;;;;;;5.20;2.30;;;;;;;27.76;35.18;101316.81;102722;1297;61417;-82
2023/09/11 00:03:08;;;;;;;3.40;2.10;;;;;;;27.75;35.23;101315.06;102708;1297;61935;-82
2023/09/11 00:05:34;;;;;;;3.10;2.10;;;;;;;27.76;35.25;101313.17;102693;1297;61331;-82
2023/09/11 00:07:59;;;;;;;3.40;2.10;;;;;;;27.75;35.20;101308.72;102820;1297;62441;-81
2023/09/11 00:10:25;;;;;;;4.60;2.40;;;;;;;27.75;35.40;101309.81;102748;1296;61411;-82
2023/09/11 00:12:52;;;;;;;4.20;2.30;;;;;;;27.76;35.34;101311.04;102658;1300;61545;-82
2023/09/11 00:15:17;;;;;;;4.40;2.20;;;;;;;27.75;35.22;101310.55;102782;1300;65933;-82
2023/09/11 00:17:43;;;;;;;3.70;2.30;;;;;;;27.75;35.04;101310.89;102742;1298;62589;-82
2023/09/11 00:20:09;;;;;;;5.10;2.30;;;;;;;27.75;35.41;101311.44;102771;1297;61554;-82
2023/09/11 00:22:35;;;;;;;3.70;2.10;;;;;;;27.75;35.32;101310.41;102802;1298;61536;-82
2023/09/11 00:25:01;;;;;;;3.60;2.00;;;;;;;27.74;35.46;101311.15;102741;1298;61360;-81
2023/09/11 00:27:26;;;;;;;3.80;2.30;;;;;;;27.74;35.42;101307.35;102679;1298;62109;-82
2023/09/11 00:29:52;;;;;;;3.80;2.40;;;;;;;27.75;35.28;101307.87;102760;1296;62149;-82
2023/09/11 00:32:18;;;;;;;3.20;2.00;;;;;;;27.74;35.40;101306.84;102807;1297;61487;-82
2023/09/11 00:34:43;;;;;;;3.70;2.00;;;;;;;27.74;35.59;101307.59;102807;1300;61408;-81
2023/09/11 00:37:09;;;;;;;3.40;2.10;;;;;;;27.74;35.40;101302.70;102759;1298;61314;-82
2023/09/11 00:39:35;;;;;;;4.40;2.10;;;;;;;27.74;35.42;101303.07;102788;1297;61486;-82
2023/09/11 00:42:00;;;;;;;4.20;2.20;;;;;;;27.74;35.50;101303.08;102794;1295;61395;-82
2023/09/11 00:44:26;;;;;;;4.20;2.40;;;;;;;27.74;35.25;101305.61;102685;1301;62071;-82
2023/09/11 00:46:52;;;;;;;3.50;2.00;;;;;;;27.74;35.27;101303.82;102772;1298;61497;-82
2023/09/11 00:49:19;;;;;;;3.70;2.00;;;;;;;27.74;35.26;101308.16;102703;1297;61454;-82
2023/09/11 00:51:44;;;;;;;3.60;2.00;;;;;;;27.74;35.52;101310.33;102740;1301;61472;-82
2023/09/11 00:54:10;;;;;;;3.80;2.20;;;;;;;27.73;35.47;101307.33;102829;1296;61392;-82
2023/09/11 00:56:36;;;;;;;4.00;2.40;;;;;;;27.73;35.22;101306.75;102642;1302;61381;-82
2023/09/11 00:59:03;;;;;;;3.50;2.20;;;;;;;27.73;35.32;101307.16;102780;1297;61460;-82
2023/09/11 01:01:29;;;;;;;3.80;2.10;;;;;;;27.73;35.48;101307.52;102656;1298;61325;-82
2023/09/11 01:03:54;;;;;;;4.30;2.10;;;;;;;27.72;35.49;101303.58;102817;1297;61500;-82
2023/09/11 01:06:21;;;;;;;4.70;2.40;;;;;;;27.72;35.34;101302.70;102635;1297;61450;-81
2023/09/11 01:08:47;;;;;;;3.60;2.20;;;;;;;27.72;35.46;101305.21;102691;1298;63909;-81
2023/09/11 01:11:12;;;;;;;3.30;2.00;;;;;;;27.72;35.48;101305.59;102641;1301;61988;-82
2023/09/11 01:13:38;;;;;;;3.80;2.20;;;;;;;27.72;35.38;101306.33;102680;1297;61460;-82
2023/09/11 01:16:15;;;;;;;6.30;2.30;;;;;;;27.71;35.36;101305.33;102769;1298;62010;-82
2023/09/11 01:18:51;;;;;;;3.00;1.90;;;;;;;27.71;35.36;101306.55;102642;1297;63794;-81
2023/09/11 01:21:55;;;;;;;3.50;2.20;;;;;;;27.71;35.30;101308.77;102656;1301;66953;-82
2023/09/11 01:24:42;;;;;;;3.50;2.00;;;;;;;27.70;35.44;101306.32;102572;1301;61564;-82
2023/09/11 01:27:42;;;;;;;3.70;2.20;;;;;;;27.70;35.32;101308.70;102342;1300;61467;-81
2023/09/11 01:30:08;;;;;;;4.00;2.40;;;;;;;27.70;35.45;101308.52;102452;1300;64111;-82
2023/09/11 01:32:34;;;;;;;3.20;2.10;;;;;;;27.70;35.36;101306.52;102432;1302;61468;-82
2023/09/11 01:35:00;;;;;;;4.40;2.00;;;;;;;27.70;35.05;101304.33;102385;1301;61336;-82
2023/09/11 01:37:27;;;;;;;3.60;2.20;;;;;;;27.70;35.37;101300.02;102383;1300;61515;-82
2023/09/11 01:39:53;;;;;;;3.50;2.10;;;;;;;27.69;35.42;101300.79;102403;1305;61587;-82
2023/09/11 01:42:25;;;;;;;4.30;2.40;;;;;;;27.69;35.17;101301.15;102338;1301;61489;-82
2023/09/11 01:44:51;;;;;;;4.60;2.00;;;;;;;27.69;35.08;101300.08;102506;1300;61306;-82
2023/09/11 01:47:17;;;;;;;3.40;2.10;;;;;;;27.69;35.11;101298.81;102256;1301;61653;-82
2023/09/11 01:49:43;;;;;;;3.40;2.10;;;;;;;27.69;35.31;101296.28;102326;1301;61956;-82
2023/09/11 01:52:10;;;;;;;3.70;2.20;;;;;;;27.69;35.11;101294.50;102375;1306;61400;-82
2023/09/11 01:54:36;;;;;;;3.40;2.00;;;;;;;27.69;35.27;101296.86;102408;1300;61417;-82
2023/09/11 01:57:03;;;;;;;3.60;2.10;;;;;;;27.69;35.07;101294.65;102389;1306;61604;-82
2023/09/11 01:59:29;;;;;;;4.20;2.10;;;;;;;27.69;35.10;101292.90;102291;1300;61412;-82
2023/09/11 02:01:54;;;;;;;4.60;2.20;;;;;;;27.69;35.24;101295.92;102583;1303;61431;-82
2023/09/11 02:04:20;;;;;;;2.90;1.90;;;;;;;27.69;35.24;101299.77;102705;1301;61415;-82
2023/09/11 02:06:47;;;;;;;4.90;2.10;;;;;;;27.68;35.14;101300.16;102683;1296;61406;-82
2023/09/11 02:09:13;;;;;;;3.20;1.90;;;;;;;27.68;35.16;101297.81;102721;1296;61371;-82
2023/09/11 02:11:38;;;;;;;3.40;2.10;;;;;;;27.68;35.20;101296.73;102661;1300;61342;-82
2023/09/11 02:14:04;;;;;;;3.60;2.20;;;;;;;27.68;35.17;101293.16;102747;1298;62730;-82
2023/09/11 02:16:30;;;;;;;3.80;1.90;;;;;;;27.68;35.04;101292.41;102720;1297;61473;-82
2023/09/11 02:18:56;;;;;;;3.30;2.10;;;;;;;27.68;35.04;101293.66;102762;1296;61393;-82
2023/09/11 02:21:21;;;;;;;4.10;2.10;;;;;;;27.68;35.14;101293.16;102708;1297;61378;-82
2023/09/11 02:23:47;;;;;;;3.60;2.10;;;;;;;27.67;35.16;101288.68;102631;1297;61419;-82
2023/09/11 02:26:12;;;;;;;4.20;2.00;;;;;;;27.67;35.14;101283.63;102629;1297;61383;-82
2023/09/11 02:28:38;;;;;;;3.90;1.90;;;;;;;27.67;35.04;101282.59;102803;1296;62404;-82
2023/09/11 02:31:04;;;;;;;2.90;1.70;;;;;;;27.67;35.07;101285.11;102662;1296;62045;-81
2023/09/11 02:33:29;;;;;;;2.90;1.70;;;;;;;27.67;35.20;101289.11;102703;1297;61511;-82
2023/09/11 02:35:56;;;;;;;3.80;2.30;;;;;;;27.67;35.17;101287.30;102957;1297;63976;-82
2023/09/11 02:38:22;;;;;;;3.00;2.00;;;;;;;27.66;35.29;101282.28;102711;1298;66002;-82
2023/09/11 02:40:48;;;;;;;3.00;2.00;;;;;;;27.66;34.98;101279.71;102653;1301;61334;-82
2023/09/11 02:43:14;;;;;;;3.40;2.00;;;;;;;27.66;35.18;101282.16;102713;1298;61473;-82
2023/09/11 02:45:43;;;;;;;3.80;2.00;;;;;;;27.66;35.05;101278.67;102768;1300;61309;-82
2023/09/11 02:48:09;;;;;;;3.60;1.90;;;;;;;27.66;34.98;101275.45;102640;1300;65766;-82
2023/09/11 02:50:34;;;;;;;3.00;2.00;;;;;;;27.66;35.08;101273.29;102624;1296;61391;-82
2023/09/11 02:53:00;;;;;;;3.80;2.00;;;;;;;27.66;35.19;101274.56;102672;1298;61361;-82
2023/09/11 02:55:26;;;;;;;3.10;2.00;;;;;;;27.65;35.05;101276.20;102702;1300;61466;-82
2023/09/11 02:57:51;;;;;;;3.00;2.00;;;;;;;27.65;35.05;101273.69;102661;1297;61387;-82
2023/09/11 03:00:17;;;;;;;3.50;2.10;;;;;;;27.65;35.11;101268.67;102669;1297;61418;-82
2023/09/11 03:02:42;;;;;;;3.70;1.90;;;;;;;27.66;34.96;101270.94;102684;1297;62355;-82
2023/09/11 03:05:08;;;;;;;3.40;2.00;;;;;;;27.65;34.95;101270.46;102434;1297;355989;-82
2023/09/11 03:07:34;;;;;;;3.00;1.90;;;;;;;27.65;35.29;101266.69;102677;1300;61414;-82
2023/09/11 03:09:59;;;;;;;2.90;1.70;;;;;;;27.64;35.31;101267.66;102933;1294;61350;-82
2023/09/11 03:12:25;;;;;;;2.90;1.90;;;;;;;27.64;35.26;101270.73;102744;1301;61485;-82
2023/09/11 03:14:53;;;;;;;3.90;1.90;;;;;;;27.64;35.05;101269.44;102773;1295;61353;-82
2023/09/11 03:17:19;;;;;;;4.30;2.10;;;;;;;27.64;35.05;101265.16;102853;1294;61293;-82
2023/09/11 03:19:45;;;;;;;3.30;1.70;;;;;;;27.64;35.29;101267.84;102802;1299;61350;-82
2023/09/11 03:22:18;;;;;;;3.60;2.10;;;;;;;27.64;34.96;101266.79;102688;1295;65707;-82
2023/09/11 03:24:44;;;;;;;4.60;1.90;;;;;;;27.64;35.12;101265.73;102910;1295;61402;-82
2023/09/11 03:27:09;;;;;;;3.20;1.80;;;;;;;27.63;35.06;101263.77;102874;1300;61403;-82
2023/09/11 03:29:36;;;;;;;4.30;2.00;;;;;;;27.63;35.16;101264.86;102814;1295;61411;-82
2023/09/11 03:32:02;;;;;;;2.80;1.80;;;;;;;27.62;35.13;101266.17;102820;1300;62254;-82
2023/09/11 03:34:27;;;;;;;4.10;1.90;;;;;;;27.62;34.87;101264.58;102952;1295;61312;-82
2023/09/11 03:36:53;;;;;;;3.50;1.70;;;;;;;27.62;34.97;101263.31;102807;1294;61424;-82
2023/09/11 03:39:18;;;;;;;3.50;2.00;;;;;;;27.62;34.80;101266.41;102821;1297;61412;-82
2023/09/11 03:41:44;;;;;;;2.90;1.70;;;;;;;27.61;34.91;101270.98;102919;1297;61477;-82
2023/09/11 03:44:10;;;;;;;3.10;2.00;;;;;;;27.62;34.93;101272.02;102890;1299;61454;-82
2023/09/11 03:46:35;;;;;;;5.10;2.10;;;;;;;27.61;34.79;101271.70;102660;1301;61388;-82
2023/09/11 03:49:01;;;;;;;4.00;1.90;;;;;;;27.61;34.75;101272.09;102772;1294;62532;-82
2023/09/11 03:51:26;;;;;;;4.40;2.00;;;;;;;27.61;34.67;101273.15;102720;1301;61916;-82
2023/09/11 03:53:52;;;;;;;4.20;2.10;;;;;;;27.60;34.28;101271.23;102744;1294;61408;-82
2023/09/11 03:56:18;;;;;;;5.00;2.20;;;;;;;27.60;34.20;101267.84;102838;1294;61350;-82
2023/09/11 03:58:45;;;;;;;3.70;2.10;;;;;;;27.60;34.25;101266.89;102815;1294;61476;-82
2023/09/11 04:01:10;;;;;;;5.70;2.20;;;;;;;27.60;34.13;101268.92;102831;1300;61365;-82
2023/09/11 04:03:36;;;;;;;5.10;2.30;;;;;;;27.59;34.01;101271.89;102848;1295;61404;-82
2023/09/11 04:06:02;;;;;;;5.50;2.40;;;;;;;27.59;34.09;101272.60;102897;1300;61422;-82
2023/09/11 04:08:28;;;;;;;7.00;2.40;;;;;;;27.58;33.89;101272.66;102680;1300;65882;-82
2023/09/11 04:10:53;;;;;;;6.00;2.50;;;;;;;27.58;33.99;101273.41;102891;1295;61428;-82
2023/09/11 04:13:19;;;;;;;8.70;2.50;;;;;;;27.58;33.73;101268.35;102872;1294;61363;-82
2023/09/11 04:15:45;;;;;;;6.80;2.50;;;;;;;27.57;33.76;101268.09;102910;1294;61463;-82
2023/09/11 04:18:10;;;;;;;7.50;2.80;;;;;;;27.58;33.64;101267.86;102907;1300;62155;-82
2023/09/11 04:20:36;;;;;;;9.10;2.70;;;;;;;27.57;33.59;101264.80;102643;1294;65791;-82
2023/09/11 04:23:02;;;;;;;7.30;3.00;;;;;;;27.57;33.66;101265.17;102727;1296;61401;-82
2023/09/11 04:25:29;;;;;;;9.30;2.70;;;;;;;27.57;33.41;101263.44;102815;1294;61420;-82
2023/09/11 04:27:55;;;;;;;7.00;2.70;;;;;;;27.57;33.29;101262.35;102913;1294;61333;-83
2023/09/11 04:30:20;;;;;;;9.20;2.70;;;;;;;27.56;33.08;101258.06;102769;1295;61436;-81
2023/09/11 04:32:47;;;;;;;13.00;3.30;;;;;;;27.56;33.05;101260.23;103105;1297;61400;-82
2023/09/11 04:35:12;;;;;;;13.00;3.40;;;;;;;27.56;32.99;101257.69;102767;1294;61335;-82
2023/09/11 04:37:38;;;;;;;8.60;2.80;;;;;;;27.56;33.05;101258.44;102992;1294;61294;-82
2023/09/11 04:40:07;;;;;;;9.90;3.00;;;;;;;27.56;32.96;101257.52;103238;1297;61400;-82
2023/09/11 04:42:33;;;;;;;9.10;3.40;;;;;;;27.54;33.12;101258.58;103487;1295;65836;-83
2023/09/11 04:44:59;;;;;;;7.70;2.90;;;;;;;27.52;33.12;101259.67;102936;1294;61379;-82
2023/09/11 04:47:31;;;;;;;13.90;2.90;;;;;;;27.49;32.85;101261.09;103482;1300;61340;-82
2023/09/11 04:49:57;;;;;;;6.70;2.70;;;;;;;27.42;32.86;101257.57;103297;1295;63905;-82
2023/09/11 04:52:23;;;;;;;6.30;2.70;;;;;;;27.36;32.63;101258.79;103875;1297;61202;-82
2023/09/11 04:54:49;;;;;;;6.20;2.80;;;;;;;27.32;32.64;101257.92;103481;1297;61281;-83
2023/09/11 04:57:14;;;;;;;10.50;2.80;;;;;;;27.28;32.72;101256.98;103433;1294;61971;-82
2023/09/11 04:59:41;;;;;;;5.30;2.60;;;;;;;27.24;32.56;101257.54;103605;1300;61466;-83
2023/09/11 05:02:10;;;;;;;10.40;3.10;;;;;;;27.19;32.60;101258.84;103928;1295;61317;-82
2023/09/11 05:04:47;;;;;;;5.90;2.70;;;;;;;27.12;32.55;101259.67;103627;1294;61248;-82
2023/09/11 05:07:12;;;;;;;11.30;3.20;;;;;;;27.05;32.58;101259.73;104626;1295;61281;-84
2023/09/11 05:09:38;;;;;;;10.30;3.60;;;;;;;26.97;32.59;101257.73;103447;1295;61437;-81
2023/09/11 05:12:04;;;;;;;9.60;3.50;;;;;;;26.86;32.43;101258.88;103084;1294;61409;-81
2023/09/11 05:14:30;;;;;;;9.70;2.80;;;;;;;26.82;32.51;101257.07;104063;1294;61859;-81
2023/09/11 05:16:56;;;;;;;9.60;2.90;;;;;;;26.82;32.55;101256.61;103728;1294;61317;-81
2023/09/11 05:19:21;;;;;;;9.30;3.30;;;;;;;26.56;32.19;101256.70;104093;1300;61315;-81
2023/09/11 05:21:47;;;;;;;10.30;2.90;;;;;;;25.96;32.58;101254.58;103889;1300;61358;-82
2023/09/11 05:24:13;;;;;;;7.70;2.70;;;;;;;25.66;32.96;101256.93;103728;1296;73263;-83
2023/09/11 05:26:39;;;;;;;9.70;2.60;;;;;;;25.30;33.05;101262.19;103887;1296;61358;-82
2023/09/11 05:29:07;;;;;;;9.10;2.60;;;;;;;24.92;33.51;101264.56;103791;1294;61329;-81
2023/09/11 05:31:33;;;;;;;13.00;3.10;;;;;;;24.87;33.85;101261.33;103782;1294;61253;-82
2023/09/11 05:33:59;;;;;;;9.20;2.50;;;;;;;24.96;33.92;101260.98;103351;1299;61498;-82
2023/09/11 05:36:24;;;;;;;10.10;2.40;;;;;;;24.99;33.87;101260.73;103366;1294;61395;-83
2023/09/11 05:38:50;;;;;;;6.80;2.50;;;;;;;24.84;33.89;101262.45;103525;1296;60004;-83
2023/09/11 05:41:16;;;;;;;11.20;2.70;;;;;;;24.76;34.10;101262.22;103907;1295;61291;-83
2023/09/11 05:43:41;;;;;;;11.60;2.80;;;;;;;24.54;34.05;101263.36;103480;1300;61491;-83
2023/09/11 05:46:07;;;;;;;10.10;2.70;;;;;;;24.14;34.29;101267.42;103386;1300;61406;-82
2023/09/11 05:48:33;;;;;;;10.80;2.90;;;;;;;23.89;34.78;101269.11;103518;1294;61384;-83
2023/09/11 05:50:58;;;;;;;7.80;2.80;;;;;;;23.74;34.93;101264.98;103733;1295;61450;-82
2023/09/11 05:53:25;;;;;;;12.30;3.10;;;;;;;23.61;35.36;101258.04;103835;1295;61446;-85
2023/09/11 05:55:52;;;;;;;12.90;3.00;;;;;;;23.72;35.54;101257.25;103889;1294;73750;-83
2023/09/11 05:58:19;;;;;;;13.80;2.90;;;;;;;24.01;35.56;101260.13;103458;1299;74482;-83
2023/09/11 06:00:46;;;;;;;13.50;2.90;;;;;;;24.24;35.47;101258.70;103534;1296;61504;-83
2023/09/11 06:03:11;;;;;;;14.60;4.00;;;;;;;24.45;35.26;101260.30;104048;1294;61482;-83
2023/09/11 06:05:39;;;;;;;10.60;2.90;;;;;;;24.50;35.16;101262.10;103547;1300;61317;-84
2023/09/11 06:08:06;;;;;;;11.80;3.80;;;;;;;24.56;35.22;101265.17;103588;1299;61262;-82
2023/09/11 06:10:34;;;;;;;11.40;3.40;;;;;;;24.49;35.15;101262.14;104476;1294;60136;-82
2023/09/11 06:13:00;;;;;;;11.30;2.80;;;;;;;24.46;35.27;101264.89;104481;1294;61298;-81
2023/09/11 06:15:25;;;;;;;10.50;2.70;;;;;;;24.37;35.21;101266.11;103738;1300;61418;-81
2023/09/11 06:17:51;;;;;;;9.80;2.90;;;;;;;24.18;35.40;101274.09;104048;1295;61383;-82
2023/09/11 06:20:18;;;;;;;8.60;2.80;;;;;;;24.14;35.54;101271.55;104384;1294;61372;-81
2023/09/11 06:22:44;;;;;;;11.10;2.80;;;;;;;24.23;35.64;101278.75;103662;1295;61444;-82
2023/09/11 06:25:10;;;;;;;15.10;2.80;;;;;;;24.17;35.52;101278.81;103563;1295;61290;-84
2023/09/11 06:27:36;;;;;;;12.00;3.10;;;;;;;24.05;35.65;101280.67;103741;1296;61436;-83
2023/09/11 06:30:05;;;;;;;14.00;2.90;;;;;;;24.06;35.66;101282.36;103789;1297;61417;-82
2023/09/11 06:32:34;;;;;;;7.50;2.30;;;;;;;24.11;35.78;101280.41;103928;1294;61325;-83
2023/09/11 06:35:01;;;;;;;10.40;2.60;;;;;;;24.28;35.75;101279.77;103921;1301;72408;-82
2023/09/11 06:37:27;;;;;;;10.10;2.50;;;;;;;24.48;35.65;101276.05;103656;1300;74356;-83
2023/09/11 06:39:53;;;;;;;8.80;2.60;;;;;;;24.70;35.59;101278.70;104253;1295;61288;-82
2023/09/11 06:42:22;;;;;;;8.50;2.00;;;;;;;24.88;35.45;101279.64;104416;1295;59456;-82
2023/09/11 06:44:51;;;;;;;8.40;2.00;;;;;;;24.92;35.25;101276.95;104219;1296;72508;-83
2023/09/11 06:47:17;;;;;;;7.30;2.30;;;;;;;24.94;35.34;101277.48;104126;1300;74762;-82
2023/09/11 06:49:42;;;;;;;6.60;1.90;;;;;;;24.97;35.13;101278.88;103727;1300;61454;-82
2023/09/11 06:52:08;;;;;;;10.70;2.10;;;;;;;24.92;35.18;101286.32;104158;1296;61462;-81
2023/09/11 06:54:34;;;;;;;9.30;2.10;;;;;;;25.00;35.28;101286.41;104113;1296;61292;-82
2023/09/11 06:57:00;;;;;;;5.80;1.90;;;;;;;25.13;35.40;101287.19;103878;1302;61551;-84
2023/09/11 06:59:26;;;;;;;6.50;1.90;;;;;;;25.24;35.26;101288.58;103854;1297;61427;-82
2023/09/11 07:01:52;;;;;;;7.90;1.90;;;;;;;25.34;35.21;101293.62;103940;1300;61431;-82
2023/09/11 07:04:17;;;;;;;11.80;2.00;;;;;;;25.40;35.10;101294.51;104023;1298;62616;-83
2023/09/11 07:06:45;;;;;;;6.70;1.90;;;;;;;25.50;35.04;101292.91;104127;1295;61404;-86
2023/09/11 07:09:11;;;;;;;3.80;1.50;;;;;;;25.59;34.95;101292.81;104044;1298;61322;-81
2023/09/11 07:11:37;;;;;;;5.10;1.60;;;;;;;25.63;34.71;101291.05;103650;1299;61328;-81
2023/09/11 07:14:05;;;;;;;8.50;1.90;;;;;;;25.67;34.64;101293.64;103780;1295;61385;-82
2023/09/11 07:16:32;;;;;;;6.10;1.70;;;;;;;25.75;34.48;101290.58;103797;1298;73410;-82
2023/09/11 07:18:57;;;;;;;11.40;2.10;;;;;;;25.83;34.43;101290.45;103780;1298;61405;-83
2023/09/11 07:21:23;;;;;;;7.70;1.90;;;;;;;25.90;34.34;101293.64;103892;1300;61424;-81
2023/09/11 07:23:49;;;;;;;10.20;2.10;;;;;;;25.97;34.18;101297.42;103756;1300;59475;-82
2023/09/11 07:26:14;;;;;;;8.30;2.10;;;;;;;26.05;34.37;101294.36;103874;1294;61427;-81
2023/09/11 07:29:04;;;;;;;5.80;1.90;;;;;;;26.13;34.01;101295.39;104117;1298;61301;-82
2023/09/11 07:31:46;;;;;;;3.70;1.70;;;;;;;26.19;34.20;101292.17;104346;1296;66075;-82
2023/09/11 07:34:14;;;;;;;5.30;1.90;;;;;;;26.23;34.02;101294.85;103963;1295;61398;-82
2023/09/11 07:36:40;;;;;;;6.00;1.90;;;;;;;26.24;33.82;101296.41;104009;1295;61419;-82
2023/09/11 07:39:05;;;;;;;6.00;1.80;;;;;;;26.21;33.77;101295.98;103839;1295;61288;-81
2023/09/11 07:41:31;;;;;;;5.30;1.60;;;;;;;26.18;33.71;101288.30;103957;1301;61755;-82
2023/09/11 07:43:57;;;;;;;5.60;1.80;;;;;;;26.19;33.58;101284.23;104291;1298;61400;-81
2023/09/11 07:46:24;;;;;;;5.60;1.70;;;;;;;26.18;33.39;101288.95;105589;1294;59398;-82
2023/09/11 07:48:50;;;;;;;4.80;1.80;;;;;;;26.19;33.37;101284.77;105695;1298;58981;-82
2023/09/11 07:51:16;;;;;;;6.80;1.70;;;;;;;26.18;33.12;101286.48;105437;1297;61803;-81
2023/09/11 07:53:42;;;;;;;8.40;1.90;;;;;;;25.96;32.71;101284.88;104292;1295;61320;-80
2023/09/11 07:56:10;;;;;;;5.60;1.70;;;;;;;25.66;32.74;101281.94;103611;1300;61302;-81
2023/09/11 07:58:38;;;;;;;8.40;2.10;;;;;;;25.57;32.75;101280.91;103673;1296;61324;-83
2023/09/11 08:01:04;;;;;;;10.20;1.90;;;;;;;25.45;32.78;101279.15;104137;1294;63892;-81
2023/09/11 08:03:33;;;;;;;10.30;1.70;;;;;;;25.38;32.68;101275.83;104198;1298;61323;-82
2023/09/11 08:05:59;;;;;;;6.70;2.00;;;;;;;25.43;32.92;101277.52;104555;1294;61372;-82
2023/09/11 08:08:26;;;;;;;9.00;1.90;;;;;;;25.58;32.90;101271.79;104589;1294;61328;-81
2023/09/11 08:10:52;;;;;;;9.60;2.00;;;;;;;25.72;32.85;101270.45;104373;1295;61229;-82
2023/09/11 08:13:17;;;;;;;11.70;2.00;;;;;;;25.84;32.73;101268.95;103985;1297;61430;-80
2023/09/11 08:15:43;;;;;;;8.60;2.20;;;;;;;25.91;32.65;101264.54;104022;1298;61333;-81
2023/09/11 08:18:10;;;;;;;9.90;2.30;;;;;;;25.75;32.46;101263.21;103759;1294;60894;-80
2023/09/11 08:20:36;;;;;;;4.40;2.10;;;;;;;25.58;32.61;101258.32;103886;1293;61436;-81
2023/09/11 08:23:03;;;;;;;4.70;2.10;;;;;;;25.52;32.76;101255.02;103641;1294;61216;-82
2023/09/11 08:25:29;;;;;;;11.50;2.30;;;;;;;25.53;32.82;101253.32;103778;1294;61353;-81
2023/09/11 08:27:55;;;;;;;7.40;2.40;;;;;;;25.47;32.68;101245.70;103914;1294;62099;-82
2023/09/11 08:30:20;;;;;;;6.60;2.40;;;;;;;25.45;32.72;101245.88;104037;1294;61406;-82
2023/09/11 08:32:46;;;;;;;10.80;2.60;;;;;;;25.59;32.87;101242.94;103928;1299;61410;-82
2023/09/11 08:35:12;;;;;;;8.20;2.70;;;;;;;25.70;32.73;101241.79;103873;1295;61427;-82
2023/09/11 08:37:37;;;;;;;10.20;3.20;;;;;;;25.79;32.53;101235.99;104102;1294;61267;-84
2023/09/11 08:40:04;;;;;;;8.30;2.40;;;;;;;25.86;32.34;101235.20;103876;1300;61405;-83
2023/09/11 08:42:30;;;;;;;8.90;2.40;;;;;;;25.92;32.25;101230.19;103788;1294;61367;-83
2023/09/11 08:44:56;;;;;;;13.60;2.50;;;;;;;25.97;32.16;101231.45;103838;1297;61500;-83
2023/09/11 08:47:26;;;;;;;7.40;2.80;;;;;;;25.95;31.82;101228.02;104089;1296;61381;-83
2023/09/11 08:49:54;;;;;;;7.80;2.30;;;;;;;25.87;31.74;101225.80;103941;1294;59292;-83
2023/09/11 08:52:20;;;;;;;5.10;2.30;;;;;;;25.89;31.73;101225.41;104317;1296;63670;-83
2023/09/11 08:54:49;;;;;;;12.10;2.20;;;;;;;25.92;31.63;101221.67;104260;1297;61275;-83
2023/09/11 08:57:15;;;;;;;7.40;2.30;;;;;;;25.92;31.58;101220.63;104281;1294;61195;-82
2023/09/11 08:59:43;;;;;;;4.10;1.70;;;;;;;25.90;31.41;101217.77;104225;1294;61447;-83
2023/09/11 09:02:16;;;;;;;9.60;1.90;;;;;;;25.82;31.29;101216.83;104312;1299;64017;-83
2023/09/11 09:04:41;;;;;;;6.00;2.00;;;;;;;25.85;31.27;101212.75;103842;1294;64660;-83
2023/09/11 09:07:07;;;;;;;11.80;2.20;;;;;;;25.90;31.23;101213.56;104204;1298;61362;-83
2023/09/11 09:09:33;;;;;;;6.00;1.80;;;;;;;25.92;31.09;101216.13;104168;1294;61516;-84
2023/09/11 09:11:58;;;;;;;7.30;1.90;;;;;;;25.89;30.97;101213.84;104607;1294;61204;-84
2023/09/11 09:14:28;;;;;;;11.90;2.20;;;;;;;25.82;30.76;101210.16;104578;1294;61394;-81
2023/09/11 09:16:53;;;;;;;12.50;2.00;;;;;;;25.61;30.72;101210.11;104558;1299;60024;-81
2023/09/11 09:19:20;;;;;;;5.90;1.90;;;;;;;25.59;30.87;101207.74;104440;1294;61277;-81
2023/09/11 09:22:07;;;;;;;7.30;1.90;;;;;;;25.51;30.76;101209.84;104562;1295;59484;-81
2023/09/11 09:24:33;;;;;;;7.50;2.00;;;;;;;25.61;31.00;101207.39;104393;1294;75048;-81
2023/09/11 09:27:00;;;;;;;5.50;1.50;;;;;;;25.72;31.00;101203.23;104104;1294;61431;-82
2023/09/11 09:29:26;;;;;;;3.70;1.80;;;;;;;25.72;30.78;101200.48;103973;1294;61332;-81
2023/09/11 09:31:51;;;;;;;5.00;1.80;;;;;;;25.72;30.78;101198.34;104229;1294;62084;-82
2023/09/11 09:34:18;;;;;;;6.00;1.70;;;;;;;25.70;30.62;101196.18;104188;1294;61316;-81
2023/09/11 09:36:51;;;;;;;7.50;1.80;;;;;;;25.67;30.57;101194.14;104415;1294;61349;-81
2023/09/11 09:39:16;;;;;;;4.90;1.60;;;;;;;25.66;30.36;101193.27;104482;1294;61168;-81
2023/09/11 09:41:58;;;;;;;7.80;1.80;;;;;;;25.74;30.45;101189.16;104484;1294;60405;-81
2023/09/11 09:44:28;;;;;;;6.90;1.90;;;;;;;25.80;30.38;101184.92;104488;1294;67240;-83
2023/09/11 09:46:54;;;;;;;8.40;1.90;;;;;;;25.73;30.03;101183.83;104578;1294;59248;-83
2023/09/11 09:49:21;;;;;;;4.90;1.80;;;;;;;25.63;29.82;101182.90;104711;1294;59308;-83
2023/09/11 09:51:47;;;;;;;5.00;1.70;;;;;;;25.64;29.81;101179.91;104346;1294;64086;-81
2023/09/11 09:54:13;;;;;;;4.70;1.70;;;;;;;25.74;30.02;101181.09;104121;1294;61307;-83
2023/09/11 09:56:40;;;;;;;3.60;1.60;;;;;;;25.78;29.68;101180.54;103700;1294;61387;-81
2023/09/11 09:59:06;;;;;;;5.70;1.90;;;;;;;25.73;29.51;101171.38;103816;1294;61364;-82
2023/09/11 10:01:31;;;;;;;4.50;1.90;;;;;;;25.72;29.46;101172.80;104134;1295;62211;-82
2023/09/11 10:03:59;;;;;;;4.40;1.60;;;;;;;25.65;29.35;101177.18;104090;1300;59591;-82
2023/09/11 10:06:31;;;;;;;5.00;2.30;;;;;;;25.66;29.52;101173.61;103759;1298;61268;-81
2023/09/11 10:09:23;;;;;;;5.30;1.60;;;;;;;25.79;29.64;101167.16;103985;1294;61408;-81
2023/09/11 10:11:50;;;;;;;4.60;1.90;;;;;;;25.91;29.66;101158.50;103548;1297;63986;-81
2023/09/11 10:14:15;;;;;;;4.70;1.70;;;;;;;26.02;29.72;101156.30;103942;1295;65945;-81
2023/09/11 10:16:41;;;;;;;5.60;1.80;;;;;;;26.08;29.68;101152.41;104304;1297;62120;-81
2023/09/11 10:19:07;;;;;;;7.60;1.90;;;;;;;26.03;29.24;101150.64;103678;1294;61323;-82
2023/09/11 10:21:33;;;;;;;4.30;1.90;;;;;;;25.98;29.33;101149.26;103367;1294;61595;-82
2023/09/11 10:23:59;;;;;;;3.40;1.70;;;;;;;26.04;29.40;101150.91;103434;1294;61398;-81
2023/09/11 10:26:34;;;;;;;9.80;2.50;;;;;;;26.11;29.46;101149.38;103474;1294;62194;-81
2023/09/11 10:29:05;;;;;;;6.10;2.00;;;;;;;26.16;29.35;101140.86;103851;1294;61292;-81
2023/09/11 10:32:09;;;;;;;7.20;1.70;;;;;;;26.23;29.29;101139.13;103658;1294;64344;-81
2023/09/11 10:34:38;;;;;;;8.30;2.20;;;;;;;26.25;29.12;101131.42;103752;1294;65726;-81
2023/09/11 10:37:04;;;;;;;;;;;;;;;26.28;29.19;101128.27;103444;1294;61391;-82
2023/09/11 10:39:32;;;;;;;8.80;2.20;;;;;;;26.30;29.20;101130.07;103274;1294;61693;-82
2023/09/11 10:41:58;;;;;;;5.00;1.90;;;;;;;26.33;29.28;101129.81;103407;1295;63991;-81
2023/09/11 10:44:23;;;;;;;6.90;2.10;;;;;;;26.36;29.16;101126.45;103357;1294;61353;-81
2023/09/11 10:46:52;;;;;;;4.70;1.80;;;;;;;26.34;28.93;101117.33;103171;1301;61390;-82
2023/09/11 10:49:18;;;;;;;3.90;1.90;;;;;;;26.35;29.11;101113.05;103377;1294;61373;-82
2023/09/11 10:51:48;;;;;;;5.80;2.00;;;;;;;26.38;29.09;101108.84;103310;1294;63772;-82
2023/09/11 10:54:16;;;;;;;8.10;2.00;;;;;;;26.41;29.12;101108.38;103218;1297;65757;-82
2023/09/11 10:56:42;;;;;;;3.60;2.10;;;;;;;26.42;29.10;101109.70;103524;1297;59415;-81
2023/09/11 10:59:08;;;;;;;4.50;1.80;;;;;;;26.43;29.01;101109.58;103289;1294;61409;-82
2023/09/11 11:01:33;;;;;;;8.30;2.10;;;;;;;26.44;28.98;101111.55;103634;1295;61270;-81
2023/09/11 11:04:05;;;;;;;4.50;1.90;;;;;;;26.46;29.02;101113.86;103655;1295;61386;-82
2023/09/11 11:06:32;;;;;;;7.40;2.30;;;;;;;26.49;29.09;101112.53;103786;1294;61411;-82
2023/09/11 11:08:59;;;;;;;6.50;2.10;;;;;;;26.49;28.95;101106.89;103832;1294;61394;-82
2023/09/11 11:11:29;;;;;;;9.90;2.40;;;;;;;26.46;28.89;101097.98;103363;1294;61242;-82
2023/09/11 11:14:18;;;;;;;3.90;1.90;;;;;;;26.37;28.69;101095.40;103208;1295;65924;-82
2023/09/11 11:16:54;;;;;;;5.10;2.10;;;;;;;26.37;28.84;101093.05;103379;1294;62398;-83